createdAt,value
2023-02-13T00:07:29.683Z,0.30
2023-02-13T00:17:32.638Z,0.30
2023-02-13T00:27:34.476Z,0.30
2023-02-13T00:37:36.708Z,0.30
2023-02-13T00:47:38.268Z,0.30
2023-02-13T00:57:39.750Z,0.30
2023-02-13T01:07:41.237Z,0.40
2023-02-13T01:17:42.832Z,0.40
2023-02-13T01:27:44.324Z,0.22
2023-02-13T01:37:45.805Z,0.40
2023-02-13T01:47:56.851Z,0.22
2023-02-13T01:58:07.117Z,0.40
2023-02-13T02:08:11.060Z,0.40
2023-02-13T02:18:18.203Z,0.30
2023-02-13T02:28:52.306Z,0.30
2023-02-13T02:39:20.221Z,0.30
2023-02-13T02:49:40.387Z,0.30
2023-02-13T03:00:02.521Z,0.30
2023-02-13T03:10:28.282Z,0.40
2023-02-13T03:21:22.658Z,0.30
2023-02-13T03:31:39.465Z,0.30
2023-02-13T03:41:45.437Z,0.38
2023-02-13T03:52:09.529Z,0.50
2023-02-13T04:02:14.459Z,0.38
2023-02-13T04:12:41.909Z,0.40
2023-02-13T04:22:47.832Z,0.35
2023-02-13T04:32:49.329Z,0.40
2023-02-13T04:42:50.972Z,0.40
2023-02-13T04:52:54.709Z,0.30
2023-02-13T05:03:04.299Z,0.35
2023-02-13T05:13:05.868Z,0.30
2023-02-13T05:23:23.783Z,0.38
2023-02-13T05:33:25.759Z,0.30
2023-02-13T05:43:28.213Z,0.30
2023-02-13T05:53:29.893Z,0.30
2023-02-13T06:03:32.519Z,0.30
2023-02-13T06:13:34.119Z,0.40
2023-02-13T06:23:36.000Z,0.30
2023-02-13T06:33:37.554Z,0.30
2023-02-13T06:43:40.640Z,0.40
2023-02-13T06:53:42.563Z,0.30
2023-02-13T07:03:44.088Z,0.30
2023-02-13T07:13:45.722Z,0.40
2023-02-13T07:23:47.216Z,0.40
2023-02-13T07:33:49.480Z,0.40
2023-02-13T07:43:50.963Z,0.50
2023-02-13T07:53:54.446Z,0.60
2023-02-13T08:03:57.204Z,0.40
2023-02-13T08:13:58.755Z,0.60
2023-02-13T08:24:00.322Z,0.50
2023-02-13T08:34:01.993Z,0.52
2023-02-13T08:44:03.756Z,0.60
2023-02-13T08:54:05.303Z,0.50
2023-02-13T09:04:06.914Z,0.50
2023-02-13T09:14:08.411Z,0.60
2023-02-13T09:24:10.732Z,0.52
2023-02-13T09:34:12.234Z,0.60
2023-02-13T09:44:33.743Z,0.70
2023-02-13T09:54:35.742Z,0.60
2023-02-13T10:05:15.007Z,0.60
2023-02-13T10:15:54.705Z,0.70
2023-02-13T11:07:34.398Z,1.33
2023-02-13T11:17:40.499Z,1.80
2023-02-13T11:27:42.053Z,1.33
2023-02-13T11:37:43.569Z,1.58
2023-02-13T11:47:45.196Z,1.50
2023-02-13T11:57:57.189Z,1.20
2023-02-13T12:08:01.939Z,1.20
2023-02-13T12:18:13.495Z,1.13
2023-02-13T12:28:17.403Z,1.63
2023-02-13T12:38:47.575Z,1.55
2023-02-13T12:49:33.068Z,2.30
2023-02-13T12:59:54.222Z,2.17
2023-02-13T13:10:21.750Z,1.73
2023-02-13T13:20:32.467Z,2.60
2023-02-13T13:30:36.146Z,1.95
2023-02-13T13:40:57.701Z,2.30
2023-02-13T13:50:59.927Z,1.90
2023-02-13T14:01:21.213Z,2.60
2023-02-13T14:11:40.324Z,1.90
2023-02-13T14:21:42.028Z,2.20
2023-02-13T14:31:56.670Z,2.33
2023-02-13T14:42:00.552Z,2.10
2023-02-13T14:52:08.812Z,2.10
2023-02-13T15:02:22.764Z,1.88
2023-02-13T15:12:30.378Z,2.05
2023-02-13T15:22:39.813Z,2.20
2023-02-13T15:32:41.673Z,2.85
2023-02-13T15:42:43.204Z,2.72
2023-02-13T15:52:45.785Z,2.45
2023-02-13T16:02:47.908Z,2.20
2023-02-13T16:12:49.756Z,2.40
2023-02-13T16:33:30.080Z,2.53
2023-02-13T16:43:44.784Z,2.85
2023-02-13T16:53:46.491Z,3.13
2023-02-13T17:03:48.232Z,3.00
2023-02-13T17:13:49.957Z,2.30
2023-02-13T17:23:51.547Z,2.83
2023-02-13T17:33:53.111Z,2.15
2023-02-13T17:43:54.625Z,2.80
2023-02-13T17:53:56.386Z,1.88
2023-02-13T18:03:58.310Z,2.10
2023-02-13T18:14:02.997Z,1.92
2023-02-13T18:24:04.979Z,2.00
2023-02-13T18:34:06.476Z,1.80
2023-02-13T18:44:12.555Z,1.75
2023-02-13T18:54:17.954Z,1.90
2023-02-13T19:04:19.560Z,1.98
2023-02-13T19:14:22.034Z,2.83
2023-02-13T19:24:23.534Z,1.98
2023-02-13T19:34:25.069Z,1.60
2023-02-13T19:44:26.698Z,2.00
2023-02-13T19:54:28.296Z,1.58
2023-02-13T20:04:29.774Z,1.88
2023-02-13T20:14:31.353Z,1.83
2023-02-13T20:24:33.005Z,2.20
2023-02-13T20:34:44.322Z,1.90
2023-02-13T20:44:51.596Z,1.63
2023-02-13T20:54:53.080Z,1.60
2023-02-13T21:04:54.599Z,1.90
2023-02-13T21:14:56.193Z,1.88
2023-02-13T21:24:57.681Z,1.85
2023-02-13T21:34:59.633Z,2.00
2023-02-13T21:45:01.138Z,1.45
2023-02-13T21:55:03.265Z,1.63
2023-02-13T22:05:05.383Z,2.67
2023-02-13T22:15:07.329Z,1.60
2023-02-13T22:25:09.092Z,1.48
2023-02-13T22:35:10.637Z,1.50
2023-02-13T22:45:12.173Z,1.40
2023-02-13T22:55:13.796Z,1.38
2023-02-13T23:05:15.485Z,1.40
2023-02-13T23:15:19.368Z,1.63
2023-02-13T23:35:40.789Z,1.30
2023-02-13T23:45:42.518Z,1.20
2023-02-13T23:55:45.012Z,1.35
